createdAt,value
2018-12-31T00:01:30.715Z,6.70
2018-12-31T00:03:59.128Z,7.20
2018-12-31T00:06:27.573Z,6.42
2018-12-31T00:08:55.989Z,6.33
2018-12-31T00:11:24.426Z,6.33
2018-12-31T00:13:52.848Z,6.70
2018-12-31T00:16:21.501Z,6.90
2018-12-31T00:18:50.189Z,7.58
2018-12-31T00:21:18.666Z,8.00
2018-12-31T00:23:47.093Z,7.55
2018-12-31T00:26:15.737Z,7.40
2018-12-31T00:28:44.203Z,6.87
2018-12-31T00:31:12.662Z,7.33
2018-12-31T00:33:41.341Z,8.10
2018-12-31T00:36:09.757Z,7.00
2018-12-31T00:38:38.185Z,7.30
2018-12-31T00:41:06.867Z,7.05
2018-12-31T00:43:35.298Z,7.15
2018-12-31T00:46:03.713Z,8.28
2018-12-31T00:48:32.151Z,8.25
2018-12-31T00:51:00.570Z,7.05
2018-12-31T00:53:29.257Z,8.63
2018-12-31T00:55:57.678Z,7.15
2018-12-31T00:58:26.114Z,7.80
2018-12-31T01:00:54.529Z,7.87
2018-12-31T01:03:22.961Z,7.80
2018-12-31T01:05:51.382Z,9.25
2018-12-31T01:08:19.818Z,8.40
2018-12-31T01:10:48.235Z,6.70
2018-12-31T01:13:16.890Z,8.60
2018-12-31T01:15:45.354Z,8.75
2018-12-31T01:18:13.857Z,7.47
2018-12-31T01:20:42.272Z,7.97
2018-12-31T01:23:10.710Z,7.53
2018-12-31T01:25:39.142Z,8.95
2018-12-31T01:28:07.816Z,8.00
2018-12-31T01:30:36.277Z,7.95
2018-12-31T01:33:04.706Z,8.15
2018-12-31T01:35:33.142Z,7.95
2018-12-31T01:38:01.566Z,7.85
2018-12-31T01:40:30.222Z,8.15
2018-12-31T01:42:58.689Z,7.65
2018-12-31T01:45:27.333Z,9.18
2018-12-31T01:47:55.794Z,7.83
2018-12-31T01:50:24.226Z,9.28
2018-12-31T01:52:52.898Z,8.58
2018-12-31T01:55:21.326Z,7.47
2018-12-31T01:57:50.002Z,8.05
2018-12-31T02:00:18.434Z,7.17
2018-12-31T02:02:46.863Z,7.40
2018-12-31T02:05:15.302Z,7.12
2018-12-31T02:07:43.725Z,7.30
2018-12-31T02:10:12.376Z,7.75
2018-12-31T02:12:40.834Z,8.08
2018-12-31T02:15:09.249Z,6.20
2018-12-31T02:17:37.669Z,7.45
2018-12-31T02:20:06.244Z,6.33
2018-12-31T02:22:34.923Z,6.45
2018-12-31T02:25:03.627Z,6.00
2018-12-31T02:27:32.287Z,6.42
2018-12-31T02:30:01.151Z,6.53
2018-12-31T02:32:29.636Z,6.42
2018-12-31T02:34:58.063Z,7.35
2018-12-31T02:37:26.493Z,6.40
2018-12-31T02:39:54.919Z,6.75
2018-12-31T02:42:23.576Z,6.40
2018-12-31T02:44:52.295Z,6.10
2018-12-31T02:47:20.721Z,6.70
2018-12-31T02:49:49.392Z,5.70
2018-12-31T02:52:17.830Z,6.17
2018-12-31T02:54:46.498Z,5.62
2018-12-31T02:57:14.925Z,6.90
2018-12-31T02:59:43.597Z,6.37
2018-12-31T03:02:12.269Z,7.00
2018-12-31T03:04:40.981Z,7.03
2018-12-31T03:07:09.414Z,5.65
2018-12-31T03:09:38.086Z,6.22
2018-12-31T03:12:06.518Z,7.33
2018-12-31T03:14:34.941Z,5.97
2018-12-31T03:17:03.386Z,6.95
2018-12-31T03:19:31.793Z,6.75
2018-12-31T03:22:00.220Z,7.70
2018-12-31T03:24:28.642Z,6.33
2018-12-31T03:26:57.082Z,7.22
2018-12-31T03:29:25.507Z,6.87
2018-12-31T03:31:54.220Z,5.97
2018-12-31T03:34:22.912Z,5.90
2018-12-31T03:36:51.385Z,7.10
2018-12-31T03:39:20.058Z,6.62
2018-12-31T03:41:48.485Z,6.30
2018-12-31T03:44:17.147Z,5.40
2018-12-31T03:46:45.577Z,6.50
2018-12-31T03:49:13.989Z,5.58
2018-12-31T03:51:42.417Z,5.67
2018-12-31T03:54:11.108Z,5.08
2018-12-31T03:56:39.529Z,5.90
2018-12-31T03:59:08.170Z,5.37
2018-12-31T04:01:36.886Z,5.85
2018-12-31T04:04:05.566Z,4.50
2018-12-31T04:06:34.233Z,4.78
2018-12-31T04:09:04.095Z,4.22
2018-12-31T04:11:32.514Z,4.08
2018-12-31T04:14:00.945Z,4.50
2018-12-31T04:16:29.608Z,4.50
2018-12-31T04:18:58.031Z,4.12
2018-12-31T04:21:26.446Z,4.03
2018-12-31T04:23:54.873Z,3.92
2018-12-31T04:26:23.302Z,3.95
2018-12-31T04:28:51.733Z,3.58
2018-12-31T04:31:20.399Z,3.42
2018-12-31T04:33:48.822Z,3.60
2018-12-31T04:36:17.246Z,4.05
2018-12-31T04:38:45.665Z,3.65
2018-12-31T04:41:14.085Z,3.45
2018-12-31T04:43:42.512Z,3.25
2018-12-31T04:46:10.925Z,3.30
2018-12-31T04:48:39.358Z,3.35
2018-12-31T04:51:07.781Z,2.45
2018-12-31T04:53:36.209Z,3.37
2018-12-31T04:56:04.857Z,3.30
2018-12-31T04:58:33.511Z,2.72
2018-12-31T05:01:02.217Z,3.08
2018-12-31T05:03:30.637Z,2.58
2018-12-31T05:05:59.057Z,2.75
2018-12-31T05:08:27.728Z,3.30
2018-12-31T05:10:56.141Z,2.60
2018-12-31T05:13:24.570Z,2.47
2018-12-31T05:15:53.246Z,2.83
2018-12-31T05:18:21.673Z,2.08
2018-12-31T05:20:50.089Z,2.60
2018-12-31T05:23:18.521Z,2.25
2018-12-31T05:25:46.946Z,3.10
2018-12-31T05:28:15.382Z,2.90
2018-12-31T05:30:44.053Z,2.33
2018-12-31T05:33:12.473Z,2.83
2018-12-31T05:35:41.159Z,2.37
2018-12-31T05:38:09.618Z,2.87
2018-12-31T05:40:38.254Z,2.65
2018-12-31T05:43:06.709Z,2.17
2018-12-31T05:45:35.132Z,2.15
2018-12-31T05:48:03.549Z,1.85
2018-12-31T05:50:32.221Z,2.02
2018-12-31T05:53:00.958Z,2.35
2018-12-31T05:55:29.444Z,2.00
2018-12-31T05:57:57.906Z,1.92
2018-12-31T06:00:26.329Z,1.95
2018-12-31T06:02:54.745Z,1.80
2018-12-31T06:05:23.173Z,2.12
2018-12-31T06:07:51.594Z,1.80
2018-12-31T06:10:20.277Z,2.25
2018-12-31T06:12:48.689Z,2.00
2018-12-31T06:15:17.113Z,1.95
2018-12-31T06:17:45.529Z,1.70
2018-12-31T06:20:14.206Z,2.33
2018-12-31T06:22:42.624Z,2.10
2018-12-31T06:25:11.059Z,1.60
2018-12-31T06:27:39.718Z,1.52
2018-12-31T06:30:08.136Z,1.72
2018-12-31T06:32:36.634Z,1.70
2018-12-31T06:35:05.356Z,1.42
2018-12-31T06:37:34.033Z,2.47
2018-12-31T06:40:02.501Z,2.00
2018-12-31T06:42:30.924Z,1.75
2018-12-31T06:44:59.348Z,1.92
2018-12-31T06:47:28.009Z,1.42
2018-12-31T06:49:56.664Z,2.02
2018-12-31T06:52:25.382Z,2.10
2018-12-31T06:54:54.057Z,2.25
2018-12-31T06:57:22.482Z,2.10
2018-12-31T06:59:50.994Z,2.50
2018-12-31T07:02:19.469Z,1.85
2018-12-31T07:04:48.045Z,1.67
2018-12-31T07:07:16.465Z,1.35
2018-12-31T07:09:45.029Z,2.15
2018-12-31T07:12:13.690Z,1.75
2018-12-31T07:14:42.141Z,1.45
2018-12-31T07:17:10.778Z,1.85
2018-12-31T07:19:40.476Z,1.60
2018-12-31T07:22:09.249Z,1.98
2018-12-31T07:24:37.700Z,2.12
2018-12-31T07:27:06.128Z,1.85
2018-12-31T07:29:34.791Z,1.65
2018-12-31T07:32:03.215Z,1.80
2018-12-31T07:34:31.875Z,1.82
2018-12-31T07:37:00.314Z,1.60
2018-12-31T07:39:28.734Z,2.02
2018-12-31T07:41:57.176Z,1.60
2018-12-31T07:44:29.901Z,2.20
2018-12-31T07:46:58.329Z,1.72
2018-12-31T07:49:26.978Z,2.10
2018-12-31T07:51:55.441Z,2.33
2018-12-31T07:54:23.857Z,2.30
2018-12-31T07:56:52.293Z,2.02
2018-12-31T07:59:20.706Z,2.55
2018-12-31T08:01:49.141Z,1.42
2018-12-31T08:04:17.564Z,2.05
2018-12-31T08:06:45.998Z,2.50
2018-12-31T08:09:14.414Z,2.10
2018-12-31T08:11:42.857Z,1.85
2018-12-31T08:14:11.275Z,1.90
2018-12-31T08:16:48.562Z,1.70
2018-12-31T08:19:17.248Z,1.77
2018-12-31T08:21:45.953Z,1.98
2018-12-31T08:24:14.596Z,2.08
2018-12-31T08:26:43.307Z,1.62
2018-12-31T08:29:11.726Z,1.70
2018-12-31T08:31:40.158Z,1.40
2018-12-31T08:34:08.623Z,1.92
2018-12-31T08:36:37.078Z,1.50
2018-12-31T08:39:07.487Z,1.80
2018-12-31T08:41:35.930Z,1.45
2018-12-31T08:44:07.050Z,1.35
2018-12-31T08:46:35.698Z,1.02
2018-12-31T08:49:04.461Z,1.10
2018-12-31T08:51:33.167Z,1.10
2018-12-31T08:54:01.912Z,1.50
2018-12-31T08:56:30.482Z,1.40
2018-12-31T08:58:58.930Z,1.37
2018-12-31T09:01:27.593Z,1.67
2018-12-31T09:03:56.050Z,1.10
2018-12-31T09:06:24.451Z,1.45
2018-12-31T09:08:52.882Z,0.95
2018-12-31T09:11:21.318Z,1.27
2018-12-31T09:13:49.771Z,0.70
2018-12-31T09:16:18.499Z,1.20
2018-12-31T09:18:46.934Z,1.00
2018-12-31T09:21:15.350Z,1.10
2018-12-31T09:23:43.782Z,0.95
2018-12-31T09:26:12.210Z,0.90
2018-12-31T09:28:40.647Z,1.12
2018-12-31T09:31:09.095Z,0.80
2018-12-31T09:33:37.598Z,0.95
2018-12-31T09:36:06.015Z,0.72
2018-12-31T09:38:34.706Z,1.07
2018-12-31T09:41:03.135Z,0.95
2018-12-31T09:43:31.565Z,1.10
2018-12-31T09:45:59.989Z,0.90
2018-12-31T09:48:28.422Z,0.88
2018-12-31T09:50:56.847Z,0.95
2018-12-31T09:53:25.274Z,1.00
2018-12-31T09:55:53.693Z,0.85
2018-12-31T09:58:22.154Z,0.80
2018-12-31T10:00:50.574Z,1.02
2018-12-31T10:03:19.008Z,0.70
2018-12-31T10:05:47.426Z,1.10
2018-12-31T10:08:15.850Z,0.95
2018-12-31T10:10:44.285Z,0.88
2018-12-31T10:13:12.706Z,1.02
2018-12-31T10:15:41.155Z,0.75
2018-12-31T10:18:09.578Z,0.80
2018-12-31T10:20:38.158Z,1.10
2018-12-31T10:23:06.545Z,1.00
2018-12-31T10:25:35.221Z,0.90
2018-12-31T10:28:03.945Z,0.70
2018-12-31T10:30:32.564Z,0.70
2018-12-31T10:33:01.066Z,0.80
2018-12-31T10:35:29.605Z,1.00
2018-12-31T10:37:58.275Z,0.90
2018-12-31T10:40:28.002Z,0.80
2018-12-31T10:42:56.687Z,0.90
2018-12-31T10:45:25.277Z,1.27
2018-12-31T10:47:53.785Z,0.70
2018-12-31T10:50:22.376Z,0.90
2018-12-31T10:52:50.850Z,0.98
2018-12-31T10:55:19.531Z,1.07
2018-12-31T10:57:47.983Z,0.88
2018-12-31T11:00:16.592Z,0.98
2018-12-31T11:02:45.270Z,1.05
2018-12-31T11:05:13.711Z,1.10
2018-12-31T11:07:42.138Z,1.00
2018-12-31T11:10:10.563Z,1.00
2018-12-31T11:12:39.201Z,0.80
2018-12-31T11:15:07.903Z,0.82
2018-12-31T11:17:36.365Z,0.72
2018-12-31T11:20:05.131Z,0.70
2018-12-31T11:22:33.605Z,1.00
2018-12-31T11:25:02.031Z,1.42
2018-12-31T11:27:30.703Z,1.10
2018-12-31T11:29:59.112Z,0.80
2018-12-31T11:32:27.547Z,0.73
2018-12-31T11:34:55.984Z,1.00
2018-12-31T11:37:24.692Z,1.37
2018-12-31T11:39:53.106Z,3.10
2018-12-31T11:42:21.539Z,2.30
2018-12-31T11:44:49.962Z,1.37
2018-12-31T11:47:18.618Z,1.07
2018-12-31T11:49:47.302Z,1.47
2018-12-31T11:52:15.997Z,1.30
2018-12-31T11:54:44.458Z,1.33
2018-12-31T11:57:13.131Z,0.80
2018-12-31T11:59:41.765Z,1.07
2018-12-31T12:02:10.242Z,1.37
2018-12-31T12:04:38.701Z,0.85
2018-12-31T12:07:07.353Z,1.17
2018-12-31T12:09:35.814Z,1.27
2018-12-31T12:12:04.336Z,0.95
2018-12-31T12:14:32.772Z,1.00
2018-12-31T12:17:01.313Z,1.20
2018-12-31T12:19:29.742Z,1.25
2018-12-31T12:21:58.179Z,1.70
2018-12-31T12:24:26.612Z,1.90
2018-12-31T12:26:55.040Z,1.20
2018-12-31T12:29:23.699Z,1.20
2018-12-31T12:31:52.207Z,1.55
2018-12-31T12:34:20.658Z,1.10
2018-12-31T12:36:49.089Z,1.98
2018-12-31T12:39:17.581Z,1.40
2018-12-31T12:41:46.258Z,1.20
2018-12-31T12:44:14.891Z,1.60
2018-12-31T12:46:43.682Z,1.35
2018-12-31T12:49:12.147Z,1.30
2018-12-31T12:51:40.823Z,2.83
2018-12-31T12:54:09.272Z,2.00
2018-12-31T12:56:37.725Z,1.80
2018-12-31T12:59:06.155Z,2.10
2018-12-31T13:01:34.582Z,1.40
2018-12-31T13:04:03.034Z,1.37
2018-12-31T13:06:31.639Z,1.62
2018-12-31T13:09:00.080Z,2.17
2018-12-31T13:11:28.505Z,1.92
2018-12-31T13:13:57.195Z,2.45
2018-12-31T13:16:25.605Z,2.00
2018-12-31T13:18:54.331Z,1.87
2018-12-31T13:21:23.962Z,1.60
2018-12-31T13:23:52.505Z,1.70
2018-12-31T13:26:21.173Z,1.63
2018-12-31T13:28:49.897Z,1.73
2018-12-31T13:31:18.978Z,1.60
2018-12-31T13:33:47.431Z,1.53
2018-12-31T13:36:15.902Z,1.77
2018-12-31T13:38:44.328Z,1.87
2018-12-31T13:41:12.752Z,1.77
2018-12-31T13:43:41.400Z,2.30
2018-12-31T13:46:09.862Z,1.95
2018-12-31T13:48:38.303Z,1.70
2018-12-31T13:51:06.727Z,1.90
2018-12-31T13:53:35.162Z,2.10
2018-12-31T13:56:03.583Z,2.60
2018-12-31T13:58:32.270Z,2.37
2018-12-31T14:01:00.946Z,2.50
2018-12-31T14:03:29.611Z,2.33
2018-12-31T14:05:58.070Z,2.10
2018-12-31T14:08:26.486Z,2.23
2018-12-31T14:10:55.167Z,2.30
2018-12-31T14:13:23.922Z,2.37
2018-12-31T14:15:52.345Z,2.65
2018-12-31T14:18:20.762Z,3.13
2018-12-31T14:20:49.418Z,2.77
2018-12-31T14:23:17.883Z,2.80
2018-12-31T14:25:46.318Z,3.00
2018-12-31T14:28:14.744Z,4.40
2018-12-31T14:30:43.189Z,3.10
2018-12-31T14:33:11.678Z,3.70
2018-12-31T14:35:45.746Z,3.00
2018-12-31T14:38:10.257Z,2.72
2018-12-31T14:40:38.760Z,2.77
2018-12-31T14:43:07.198Z,2.85
2018-12-31T14:45:35.767Z,2.90
2018-12-31T14:48:04.184Z,2.70
2018-12-31T14:50:32.880Z,2.67
2018-12-31T14:53:01.302Z,3.12
2018-12-31T14:55:29.947Z,3.10
2018-12-31T14:57:58.672Z,4.22
2018-12-31T15:00:27.714Z,3.85
2018-12-31T15:02:56.138Z,4.72
2018-12-31T15:05:24.649Z,4.17
2018-12-31T15:07:53.119Z,4.75
2018-12-31T15:10:21.550Z,6.03
2018-12-31T15:12:50.274Z,7.43
2018-12-31T15:15:19.226Z,8.55
2018-12-31T15:17:47.679Z,6.30
2018-12-31T15:20:16.135Z,8.45
2018-12-31T15:22:44.862Z,9.08
2018-12-31T15:28:13.429Z,4.23
2018-12-31T15:30:42.066Z,5.35
2018-12-31T15:33:19.292Z,8.57
2018-12-31T15:35:57.241Z,4.78
2018-12-31T15:38:29.723Z,4.13
2018-12-31T15:40:58.982Z,4.47
2018-12-31T15:43:27.582Z,5.00
2018-12-31T15:45:56.146Z,6.87
2018-12-31T15:48:24.803Z,6.55
2018-12-31T15:50:53.325Z,5.53
2018-12-31T15:53:22.123Z,5.28
2018-12-31T15:55:51.348Z,10.60
2018-12-31T15:58:19.777Z,11.25
2018-12-31T16:00:48.424Z,6.50
2018-12-31T16:03:16.847Z,7.00
2018-12-31T16:05:45.279Z,6.23
2018-12-31T16:08:15.189Z,6.03
2018-12-31T16:10:43.764Z,7.77
2018-12-31T16:13:12.226Z,6.55
2018-12-31T16:15:40.723Z,6.80
2018-12-31T16:18:09.198Z,7.55
2018-12-31T16:20:38.100Z,24.13
2018-12-31T16:23:06.604Z,16.67
2018-12-31T16:25:35.083Z,10.55
2018-12-31T16:28:03.522Z,9.27
2018-12-31T16:30:31.953Z,12.95
2018-12-31T16:33:00.427Z,10.27
2018-12-31T16:35:28.857Z,13.57
2018-12-31T16:37:57.395Z,11.10
2018-12-31T16:40:25.886Z,7.60
2018-12-31T16:42:54.319Z,10.67
2018-12-31T16:45:22.738Z,9.33
2018-12-31T16:47:51.382Z,9.20
2018-12-31T16:50:20.074Z,8.77
2018-12-31T16:52:48.632Z,9.23
2018-12-31T16:55:17.055Z,9.90
2018-12-31T16:57:45.694Z,8.80
2018-12-31T17:00:14.562Z,9.03
2018-12-31T17:02:43.233Z,9.77
2018-12-31T17:05:11.668Z,10.70
2018-12-31T17:07:40.107Z,10.10
2018-12-31T17:10:09.693Z,10.03
2018-12-31T17:12:38.603Z,9.93
2018-12-31T17:15:07.095Z,12.10
2018-12-31T17:17:35.773Z,13.20
2018-12-31T17:20:05.451Z,13.57
2018-12-31T17:22:33.890Z,15.60
2018-12-31T17:25:02.314Z,17.30
2018-12-31T17:27:30.737Z,16.60
2018-12-31T17:29:59.397Z,16.47
2018-12-31T17:32:27.859Z,16.00
2018-12-31T17:34:56.644Z,15.43
2018-12-31T17:37:25.117Z,14.13
2018-12-31T17:39:53.780Z,15.43
2018-12-31T17:42:22.247Z,14.43
2018-12-31T17:44:50.681Z,13.37
2018-12-31T17:47:19.324Z,16.60
2018-12-31T17:49:47.818Z,15.17
2018-12-31T17:52:16.522Z,13.50
2018-12-31T17:54:44.972Z,15.23
2018-12-31T17:57:13.623Z,15.30
2018-12-31T17:59:42.094Z,27.67
2018-12-31T18:02:10.523Z,17.60
2018-12-31T18:04:39.338Z,18.40
2018-12-31T18:07:08.027Z,15.73
2018-12-31T18:09:36.695Z,22.10
2018-12-31T18:12:05.162Z,20.70
2018-12-31T18:14:33.599Z,18.07
2018-12-31T18:17:02.279Z,15.77
2018-12-31T18:19:30.726Z,18.02
2018-12-31T18:21:59.154Z,15.93
2018-12-31T18:24:27.772Z,15.70
2018-12-31T18:26:56.193Z,14.67
2018-12-31T18:29:24.855Z,16.73
2018-12-31T18:31:53.319Z,16.73
2018-12-31T18:34:21.757Z,16.97
2018-12-31T18:36:50.188Z,31.47
2018-12-31T18:39:18.628Z,27.17
2018-12-31T18:41:47.049Z,16.93
2018-12-31T18:44:35.106Z,16.37
2018-12-31T18:47:03.783Z,13.53
2018-12-31T18:49:32.441Z,15.40
2018-12-31T18:52:00.910Z,14.63
2018-12-31T18:54:29.349Z,17.40
2018-12-31T18:56:57.774Z,21.50
2018-12-31T18:59:26.270Z,27.60
2018-12-31T19:01:54.954Z,23.38
2018-12-31T19:04:23.406Z,19.93
2018-12-31T19:06:52.207Z,20.13
2018-12-31T19:09:20.638Z,16.33
2018-12-31T19:11:49.071Z,18.60
2018-12-31T19:14:17.515Z,16.70
2018-12-31T19:16:46.035Z,18.20
2018-12-31T19:19:14.453Z,19.03
2018-12-31T19:21:42.885Z,17.60
2018-12-31T19:24:11.322Z,27.00
2018-12-31T19:26:39.766Z,32.03
2018-12-31T19:29:08.172Z,38.80
2018-12-31T19:31:36.822Z,24.70
2018-12-31T19:34:05.676Z,26.53
2018-12-31T19:36:34.158Z,22.10
2018-12-31T19:39:02.575Z,22.10
2018-12-31T19:41:31.222Z,20.57
2018-12-31T19:43:59.681Z,23.17
2018-12-31T19:46:28.709Z,26.33
2018-12-31T19:48:57.419Z,53.87
2018-12-31T19:51:25.851Z,30.43
2018-12-31T19:53:54.343Z,25.27
2018-12-31T19:56:22.784Z,19.40
2018-12-31T19:58:51.205Z,18.10
2018-12-31T20:01:19.634Z,17.87
2018-12-31T20:03:48.135Z,19.03
2018-12-31T20:06:16.579Z,21.50
2018-12-31T20:08:45.004Z,19.90
2018-12-31T20:11:13.487Z,21.57
2018-12-31T20:13:42.133Z,22.80
2018-12-31T20:16:10.610Z,22.17
2018-12-31T20:18:39.034Z,22.13
2018-12-31T20:21:07.470Z,25.90
2018-12-31T20:23:35.890Z,24.50
2018-12-31T20:26:04.330Z,26.77
2018-12-31T20:28:32.777Z,28.27
2018-12-31T20:31:01.277Z,27.60
2018-12-31T20:33:29.715Z,23.23
2018-12-31T20:35:58.214Z,22.27
2018-12-31T20:38:26.657Z,19.50
2018-12-31T20:40:55.711Z,20.70
2018-12-31T20:43:24.216Z,21.50
2018-12-31T20:45:52.938Z,20.40
2018-12-31T20:48:21.415Z,19.90
2018-12-31T20:50:49.838Z,21.97
2018-12-31T20:53:18.337Z,24.80
2018-12-31T20:55:47.178Z,23.30
2018-12-31T20:58:15.685Z,28.43
2018-12-31T21:00:44.102Z,31.17
2018-12-31T21:03:12.815Z,27.83
2018-12-31T21:05:41.242Z,31.45
2018-12-31T21:08:09.699Z,30.37
2018-12-31T21:10:38.368Z,93.27
2018-12-31T21:13:06.811Z,26.53
2018-12-31T21:15:35.240Z,32.07
2018-12-31T21:18:03.746Z,59.87
2018-12-31T21:20:32.178Z,32.48
2018-12-31T21:23:00.825Z,21.68
2018-12-31T21:25:29.505Z,33.83
2018-12-31T21:27:57.991Z,79.67
2018-12-31T21:30:26.415Z,50.93
2018-12-31T21:32:54.859Z,57.65
2018-12-31T21:35:23.658Z,41.77
2018-12-31T21:37:52.093Z,34.57
2018-12-31T21:40:20.743Z,37.10
2018-12-31T21:42:49.427Z,26.80
2018-12-31T21:45:18.142Z,27.10
2018-12-31T21:47:46.587Z,27.13
2018-12-31T21:50:15.254Z,26.27
2018-12-31T21:52:43.945Z,21.70
2018-12-31T21:55:12.383Z,21.03
2018-12-31T21:57:40.878Z,21.80
2018-12-31T22:00:10.050Z,20.67
2018-12-31T22:02:38.865Z,22.93
2018-12-31T22:05:07.295Z,25.20
2018-12-31T22:07:35.759Z,28.00
2018-12-31T22:10:04.898Z,25.20
2018-12-31T22:12:33.318Z,19.53
2018-12-31T22:15:01.783Z,19.50
2018-12-31T22:17:30.511Z,20.10
2018-12-31T22:19:59.173Z,20.40
2018-12-31T22:22:27.652Z,22.90
2018-12-31T22:24:56.114Z,21.73
2018-12-31T22:27:24.548Z,20.25
2018-12-31T22:29:53.162Z,21.27
2018-12-31T22:32:21.821Z,21.07
2018-12-31T22:34:50.257Z,21.77
2018-12-31T22:37:18.666Z,26.07
2018-12-31T22:39:47.117Z,25.30
2018-12-31T22:42:15.914Z,18.43
2018-12-31T22:44:44.341Z,16.20
2018-12-31T22:47:12.770Z,15.43
2018-12-31T22:49:41.201Z,14.13
2018-12-31T22:52:09.628Z,27.20
2018-12-31T22:54:38.067Z,23.63
2018-12-31T22:57:06.666Z,29.50
2018-12-31T22:59:35.118Z,55.47
2018-12-31T23:02:03.690Z,339.57
2018-12-31T23:04:32.139Z,729.80
2018-12-31T23:07:00.746Z,731.47
2018-12-31T23:09:29.244Z,775.03
2018-12-31T23:11:57.687Z,733.55
2018-12-31T23:14:26.132Z,735.87
2018-12-31T23:16:56.431Z,743.00
2018-12-31T23:19:25.183Z,717.22
2018-12-31T23:21:53.666Z,675.98
2018-12-31T23:24:22.098Z,645.90
2018-12-31T23:26:50.538Z,717.67
2018-12-31T23:29:18.983Z,673.80
2018-12-31T23:31:47.637Z,579.50
2018-12-31T23:34:16.346Z,557.63
2018-12-31T23:36:44.794Z,426.55
2018-12-31T23:39:13.231Z,397.30
2018-12-31T23:41:41.682Z,397.17
2018-12-31T23:44:10.117Z,329.10
2018-12-31T23:46:38.567Z,257.50
2018-12-31T23:49:06.994Z,183.27
2018-12-31T23:51:35.434Z,162.07
2018-12-31T23:54:03.861Z,149.63
2018-12-31T23:56:32.297Z,131.10
2018-12-31T23:59:00.735Z,106.40
